Time;durP1;ratioP1;P1;durP2;ratioP2;P2;SDS_P1;SDS_P2;PMS_P1;PMS_P2;Temp;Humidity;BMP_temperature;BMP_pressure;BME280_temperature;BME280_humidity;BME280_pressure;Samples;Min_cycle;Max_cycle;Signal;HPM_P1;HPM_P2
2023/09/28 00:02:00;;;;;;;45.15;20.90;;;;;;;;;;5140882;27;20083;-71
2023/09/28 00:04:27;;;;;;;43.92;20.02;;;;;;;;;;5140494;27;20111;-71
2023/09/28 00:06:53;;;;;;;43.42;19.70;;;;;;;;;;5140662;27;20054;-71
2023/09/28 00:09:19;;;;;;;44.23;20.07;;;;;;;;;;5140277;27;20504;-71
2023/09/28 00:11:46;;;;;;;47.17;20.80;;;;;;;;;;5140747;27;20111;-71
2023/09/28 00:14:12;;;;;;;42.97;20.65;;;;;;;;;;5140573;27;20043;-70
2023/09/28 00:16:39;;;;;;;42.33;19.60;;;;;;;;;;5105351;27;20471;-71
2023/09/28 00:19:08;;;;;;;;;;;;;;;;;;5140998;27;20312;-71
2023/09/28 00:21:34;;;;;;;44.40;19.40;;;;;;;;;;5141030;27;19920;-71
2023/09/28 00:24:02;;;;;;;44.33;19.67;;;;;;;;;;5140999;27;20043;-71
2023/09/28 00:26:28;;;;;;;45.08;19.77;;;;;;;;;;5122209;27;20767;-71
2023/09/28 00:28:55;;;;;;;45.35;19.25;;;;;;;;;;5140277;27;20055;-71
2023/09/28 00:31:21;;;;;;;44.30;18.55;;;;;;;;;;5104943;27;20043;-72
2023/09/28 00:33:47;;;;;;;38.55;17.30;;;;;;;;;;5140450;27;20039;-71
2023/09/28 00:36:13;;;;;;;39.83;17.88;;;;;;;;;;5122232;27;20147;-71
2023/09/28 00:38:39;;;;;;;41.30;18.47;;;;;;;;;;5137105;27;20112;-71
2023/09/28 00:41:05;;;;;;;38.97;16.97;;;;;;;;;;5137104;27;20292;-71
2023/09/28 00:43:31;;;;;;;35.88;16.90;;;;;;;;;;5119388;27;20436;-71
2023/09/28 00:45:59;;;;;;;36.47;17.07;;;;;;;;;;5118378;27;20125;-71
2023/09/28 00:48:25;;;;;;;35.25;17.05;;;;;;;;;;5136839;27;20292;-71
2023/09/28 00:50:51;;;;;;;38.10;17.08;;;;;;;;;;5136976;27;20050;-70
2023/09/28 00:53:20;;;;;;;31.45;16.90;;;;;;;;;;5136528;27;20551;-72
2023/09/28 00:55:47;;;;;;;37.25;17.08;;;;;;;;;;5118534;27;20043;-70
2023/09/28 00:58:13;;;;;;;35.08;16.77;;;;;;;;;;5119164;27;20325;-70
2023/09/28 01:00:40;;;;;;;38.30;16.37;;;;;;;;;;5136985;27;20428;-71
2023/09/28 01:03:07;;;;;;;34.58;16.50;;;;;;;;;;5136431;27;20306;-71
2023/09/28 01:05:34;;;;;;;43.35;17.38;;;;;;;;;;5118091;27;20043;-71
2023/09/28 01:08:19;;;;;;;36.83;16.73;;;;;;;;;;5101573;27;20111;-71
2023/09/28 01:10:46;;;;;;;37.20;15.98;;;;;;;;;;5137104;27;20047;-71
2023/09/28 01:13:15;;;;;;;36.70;15.90;;;;;;;;;;5137082;27;20133;-71
2023/09/28 01:15:43;;;;;;;36.60;16.67;;;;;;;;;;5118114;27;20050;-72
2023/09/28 01:18:09;;;;;;;35.03;16.35;;;;;;;;;;5118369;27;20467;-71
2023/09/28 01:20:37;;;;;;;;;;;;;;;;;;5136710;27;20450;-71
2023/09/28 01:23:04;;;;;;;30.58;15.10;;;;;;;;;;5137687;27;20010;-71
2023/09/28 01:25:30;;;;;;;36.72;16.20;;;;;;;;;;5119543;27;20100;-71
2023/09/28 01:27:57;;;;;;;34.95;16.45;;;;;;;;;;5135849;27;20051;-71
2023/09/28 01:30:23;;;;;;;37.38;16.73;;;;;;;;;;5136179;27;20086;-71
2023/09/28 01:32:49;;;;;;;29.98;15.05;;;;;;;;;;5136239;27;20131;-71
2023/09/28 01:35:19;;;;;;;36.13;15.95;;;;;;;;;;5135875;27;20535;-71
2023/09/28 01:38:03;;;;;;;36.00;15.90;;;;;;;;;;5136176;27;20059;-70
2023/09/28 01:40:29;;;;;;;34.33;16.08;;;;;;;;;;5117752;27;20126;-70
2023/09/28 01:42:56;;;;;;;38.27;16.33;;;;;;;;;;5118040;27;20467;-71
2023/09/28 01:45:22;;;;;;;38.88;15.35;;;;;;;;;;5117727;27;20381;-70
2023/09/28 01:47:48;;;;;;;33.35;15.43;;;;;;;;;;5118083;27;20054;-72
2023/09/28 01:50:14;;;;;;;34.88;16.45;;;;;;;;;;5116364;27;20047;-70
2023/09/28 01:52:40;;;;;;;37.47;16.53;;;;;;;;;;5136550;27;20061;-71
2023/09/28 01:55:07;;;;;;;34.87;16.00;;;;;;;;;;5135867;27;20341;-70
2023/09/28 01:57:33;;;;;;;39.78;16.90;;;;;;;;;;5101060;27;20178;-71
2023/09/28 02:00:00;;;;;;;30.15;15.65;;;;;;;;;;5136142;27;20050;-72
2023/09/28 02:02:26;;;;;;;36.50;15.98;;;;;;;;;;5118307;27;20062;-71
2023/09/28 02:04:52;;;;;;;33.40;14.88;;;;;;;;;;5100424;27;20039;-72
2023/09/28 02:07:18;;;;;;;31.93;14.27;;;;;;;;;;5136183;27;20099;-71
2023/09/28 02:09:45;;;;;;;28.20;14.50;;;;;;;;;;5135479;27;20043;-71
2023/09/28 02:12:12;;;;;;;35.50;14.43;;;;;;;;;;5100056;27;20485;-71
2023/09/28 02:14:38;;;;;;;27.98;14.15;;;;;;;;;;5135474;27;20050;-71
2023/09/28 02:17:04;;;;;;;32.30;13.97;;;;;;;;;;5117278;27;20084;-71
2023/09/28 02:19:30;;;;;;;29.10;13.90;;;;;;;;;;5135279;27;20283;-71
2023/09/28 02:21:56;;;;;;;30.00;13.67;;;;;;;;;;5117671;27;20051;-70
2023/09/28 02:24:22;;;;;;;27.83;13.67;;;;;;;;;;5135445;27;20046;-70
2023/09/28 02:26:51;;;;;;;28.40;13.60;;;;;;;;;;5135159;27;20054;-71
2023/09/28 02:29:17;;;;;;;29.13;13.25;;;;;;;;;;5135045;27;20088;-70
2023/09/28 02:31:43;;;;;;;27.83;14.07;;;;;;;;;;5117301;27;20079;-71
2023/09/28 02:34:10;;;;;;;28.00;12.77;;;;;;;;;;5101945;27;20092;-70
2023/09/28 02:36:36;;;;;;;25.73;12.93;;;;;;;;;;5135845;27;20353;-71
2023/09/28 02:39:06;;;;;;;29.70;13.05;;;;;;;;;;5134922;27;20285;-71
2023/09/28 02:41:33;;;;;;;33.42;13.88;;;;;;;;;;5135879;27;20390;-72
2023/09/28 02:43:59;;;;;;;31.93;13.37;;;;;;;;;;5116794;27;20043;-72
2023/09/28 02:46:26;;;;;;;31.70;13.38;;;;;;;;;;5134798;27;20383;-71
2023/09/28 02:48:52;;;;;;;31.52;13.57;;;;;;;;;;5134649;27;20047;-71
2023/09/28 02:51:18;;;;;;;32.38;13.90;;;;;;;;;;5134677;27;20134;-73
2023/09/28 02:53:44;;;;;;;28.15;14.00;;;;;;;;;;5116275;27;20086;-71
2023/09/28 02:56:12;;;;;;;27.90;13.60;;;;;;;;;;5134676;27;20050;-70
2023/09/28 02:58:39;;;;;;;33.60;13.43;;;;;;;;;;5116109;27;20104;-71
2023/09/28 03:01:05;;;;;;;29.95;14.30;;;;;;;;;;5134214;27;20067;-71
2023/09/28 03:03:31;;;;;;;27.97;13.33;;;;;;;;;;5134481;27;20047;-70
2023/09/28 03:05:58;;;;;;;29.87;13.90;;;;;;;;;;5134326;27;20039;-71
2023/09/28 03:08:24;;;;;;;25.15;13.52;;;;;;;;;;5116263;28;20054;-70
2023/09/28 03:10:53;;;;;;;28.20;14.15;;;;;;;;;;5116112;27;20058;-70
2023/09/28 03:13:19;;;;;;;31.15;13.52;;;;;;;;;;5116011;27;20100;-70
2023/09/28 03:15:46;;;;;;;33.83;13.73;;;;;;;;;;5115970;27;20395;-71
2023/09/28 03:18:12;;;;;;;30.13;14.07;;;;;;;;;;5116421;27;20288;-71
2023/09/28 03:20:40;;;;;;;26.75;13.55;;;;;;;;;;5116451;28;20095;-72
2023/09/28 03:23:08;;;;;;;31.98;14.88;;;;;;;;;;5133963;27;20053;-71
2023/09/28 03:25:34;;;;;;;29.90;14.18;;;;;;;;;;5134461;28;20039;-72
2023/09/28 03:28:00;;;;;;;34.25;14.00;;;;;;;;;;5133863;28;20043;-72
2023/09/28 03:30:28;;;;;;;30.50;14.20;;;;;;;;;;5134745;28;20094;-71
2023/09/28 03:32:54;;;;;;;32.30;14.10;;;;;;;;;;5134444;28;20388;-71
2023/09/28 03:35:21;;;;;;;29.20;14.73;;;;;;;;;;5134170;28;20039;-71
2023/09/28 03:37:48;;;;;;;31.90;14.50;;;;;;;;;;5116510;28;20130;-71
2023/09/28 03:40:14;;;;;;;34.25;14.63;;;;;;;;;;5134140;28;20047;-71
2023/09/28 03:42:44;;;;;;;31.10;13.82;;;;;;;;;;5134822;28;20399;-71
2023/09/28 03:45:11;;;;;;;36.03;14.32;;;;;;;;;;5117101;28;20050;-70
2023/09/28 03:47:37;;;;;;;31.65;13.93;;;;;;;;;;5134343;28;20534;-71
2023/09/28 03:50:04;;;;;;;31.75;14.15;;;;;;;;;;5134658;28;20047;-71
2023/09/28 03:52:30;;;;;;;27.70;13.98;;;;;;;;;;5115977;28;20047;-72
2023/09/28 03:54:57;;;;;;;33.67;14.05;;;;;;;;;;5133849;28;20135;-71
2023/09/28 03:57:23;;;;;;;31.30;14.10;;;;;;;;;;5133978;28;20139;-70
2023/09/28 03:59:49;;;;;;;31.10;14.50;;;;;;;;;;5115846;28;20055;-70
2023/09/28 04:02:15;;;;;;;28.40;13.95;;;;;;;;;;5134584;28;20357;-71
2023/09/28 04:04:42;;;;;;;28.63;14.55;;;;;;;;;;5115768;28;20043;-71
2023/09/28 04:07:08;;;;;;;26.73;13.47;;;;;;;;;;5133795;28;20094;-73
2023/09/28 04:09:34;;;;;;;29.33;13.63;;;;;;;;;;5134174;28;20067;-72
2023/09/28 04:12:00;;;;;;;27.98;13.40;;;;;;;;;;5133783;27;20403;-71
2023/09/28 04:14:27;;;;;;;30.45;14.55;;;;;;;;;;5136927;27;20086;-71
2023/09/28 04:16:53;;;;;;;34.90;14.85;;;;;;;;;;5137681;27;20047;-70
2023/09/28 04:19:19;;;;;;;26.70;14.10;;;;;;;;;;5086135;27;20383;-71
2023/09/28 04:21:45;;;;;;;30.80;13.33;;;;;;;;;;5138059;27;20039;-70
2023/09/28 04:24:12;;;;;;;29.10;14.00;;;;;;;;;;5137242;27;20039;-71
2023/09/28 04:26:38;;;;;;;32.20;14.65;;;;;;;;;;5102541;27;20134;-71
2023/09/28 04:29:04;;;;;;;35.55;13.75;;;;;;;;;;5118991;27;20055;-71
2023/09/28 04:31:30;;;;;;;32.60;13.85;;;;;;;;;;5119395;27;20062;-72
2023/09/28 04:33:57;;;;;;;32.83;14.87;;;;;;;;;;5137278;27;20039;-71
2023/09/28 04:36:24;;;;;;;29.98;14.48;;;;;;;;;;5137242;27;20047;-71
2023/09/28 04:38:50;;;;;;;;;;;;;;;;;;5137742;27;20054;-71
2023/09/28 04:41:17;;;;;;;31.40;13.77;;;;;;;;;;5102134;27;19920;-71
2023/09/28 04:43:44;;;;;;;30.55;14.52;;;;;;;;;;5103218;27;20451;-71
2023/09/28 04:46:10;;;;;;;31.02;13.75;;;;;;;;;;5118913;27;20055;-71
2023/09/28 04:48:36;;;;;;;33.93;15.07;;;;;;;;;;5137573;27;20128;-71
2023/09/28 04:51:03;;;;;;;29.60;13.53;;;;;;;;;;5120729;27;20051;-71
2023/09/28 04:53:29;;;;;;;30.48;14.73;;;;;;;;;;5121388;27;20050;-70
2023/09/28 04:55:55;;;;;;;29.37;14.00;;;;;;;;;;5136886;27;20039;-72
2023/09/28 04:58:21;;;;;;;32.43;14.27;;;;;;;;;;5118641;27;20055;-71
2023/09/28 05:00:47;;;;;;;36.30;14.17;;;;;;;;;;5136862;27;20050;-72
2023/09/28 05:03:13;;;;;;;30.77;14.45;;;;;;;;;;5136792;27;20116;-71
2023/09/28 05:05:40;;;;;;;34.20;14.53;;;;;;;;;;5136630;27;20047;-71
2023/09/28 05:08:06;;;;;;;28.97;13.77;;;;;;;;;;5119116;27;20291;-71
2023/09/28 05:10:32;;;;;;;33.67;14.48;;;;;;;;;;5118274;27;20560;-71
2023/09/28 05:12:58;;;;;;;29.30;14.27;;;;;;;;;;5136775;27;20051;-71
2023/09/28 05:15:24;;;;;;;36.90;14.50;;;;;;;;;;5118015;27;20043;-70
2023/09/28 05:17:51;;;;;;;32.38;14.05;;;;;;;;;;5118231;27;20082;-70
2023/09/28 05:20:17;;;;;;;32.75;14.07;;;;;;;;;;5136781;27;20051;-71
2023/09/28 05:22:43;;;;;;;27.13;12.80;;;;;;;;;;5118084;27;20553;-70
2023/09/28 05:25:09;;;;;;;33.53;14.25;;;;;;;;;;5136573;27;20391;-70
2023/09/28 05:27:36;;;;;;;30.38;12.90;;;;;;;;;;5136367;27;20359;-70
2023/09/28 05:30:03;;;;;;;31.65;13.60;;;;;;;;;;5136383;27;20081;-71
2023/09/28 05:32:29;;;;;;;30.67;13.85;;;;;;;;;;5136229;27;20410;-71
2023/09/28 05:34:55;;;;;;;31.33;13.27;;;;;;;;;;5136159;27;20174;-70
2023/09/28 05:37:21;;;;;;;31.70;14.00;;;;;;;;;;5135953;27;20296;-70
2023/09/28 05:39:48;;;;;;;31.23;13.63;;;;;;;;;;5136597;27;20462;-71
2023/09/28 05:42:14;;;;;;;27.70;13.48;;;;;;;;;;5135977;27;20043;-71
2023/09/28 05:44:40;;;;;;;28.57;13.13;;;;;;;;;;5135901;27;20046;-70
2023/09/28 05:47:06;;;;;;;34.90;14.20;;;;;;;;;;5135547;27;20180;-70
2023/09/28 05:49:32;;;;;;;31.53;13.70;;;;;;;;;;5118576;27;20103;-71
2023/09/28 05:51:58;;;;;;;35.90;13.47;;;;;;;;;;5135919;27;20043;-71
2023/09/28 05:54:26;;;;;;;32.80;13.30;;;;;;;;;;5117546;27;20280;-70
2023/09/28 05:56:52;;;;;;;35.70;13.52;;;;;;;;;;5117542;27;20131;-70
2023/09/28 05:59:18;;;;;;;30.08;13.60;;;;;;;;;;5135621;27;20094;-70
2023/09/28 06:01:45;;;;;;;32.77;12.90;;;;;;;;;;5100125;27;20503;-68
2023/09/28 06:04:12;;;;;;;;;;;;;;;;;;5118369;27;20339;-70
2023/09/28 06:06:38;;;;;;;30.45;12.15;;;;;;;;;;5117327;27;20014;-70
2023/09/28 06:09:04;;;;;;;32.60;12.67;;;;;;;;;;5117289;27;20043;-71
2023/09/28 06:11:30;;;;;;;32.13;13.10;;;;;;;;;;5117791;27;20047;-70
2023/09/28 06:13:56;;;;;;;36.38;12.15;;;;;;;;;;5100242;27;20047;-69
2023/09/28 06:16:25;;;;;;;31.30;11.63;;;;;;;;;;5135222;27;20039;-70
2023/09/28 06:18:52;;;;;;;28.48;10.98;;;;;;;;;;5135417;27;20059;-70
2023/09/28 06:21:18;;;;;;;31.27;10.23;;;;;;;;;;5135447;27;20328;-70
2023/09/28 06:23:44;;;;;;;36.43;10.97;;;;;;;;;;5135084;27;20039;-71
2023/09/28 06:26:10;;;;;;;36.80;10.70;;;;;;;;;;5116450;27;20050;-70
2023/09/28 06:28:36;;;;;;;34.43;10.47;;;;;;;;;;5135080;27;20055;-70
2023/09/28 06:31:02;;;;;;;29.30;10.17;;;;;;;;;;5135851;27;20051;-71
2023/09/28 06:33:29;;;;;;;32.43;8.97;;;;;;;;;;5134891;27;20371;-70
2023/09/28 06:35:55;;;;;;;33.30;9.73;;;;;;;;;;5134063;27;20280;-71
2023/09/28 06:38:21;;;;;;;37.93;9.90;;;;;;;;;;5135483;27;20058;-70
2023/09/28 06:40:48;;;;;;;30.63;10.00;;;;;;;;;;5134816;27;20111;-71
2023/09/28 06:43:15;;;;;;;42.05;10.98;;;;;;;;;;5134541;27;20618;-70
2023/09/28 06:45:41;;;;;;;36.40;10.90;;;;;;;;;;5134718;27;20073;-70
2023/09/28 06:48:07;;;;;;;43.45;9.95;;;;;;;;;;5135061;27;20408;-70
2023/09/28 06:50:35;;;;;;;39.88;9.65;;;;;;;;;;5099606;27;20135;-70
2023/09/28 06:53:02;;;;;;;38.08;8.90;;;;;;;;;;5134535;27;20053;-70
2023/09/28 06:55:29;;;;;;;38.53;9.70;;;;;;;;;;5116399;27;20047;-70
2023/09/28 06:57:55;;;;;;;;;;;;;;;;;;5134929;27;20506;-69
2023/09/28 07:00:22;;;;;;;37.65;7.97;;;;;;;;;;5151009;27;19923;-69
2023/09/28 07:02:48;;;;;;;;;;;;;;;;;;5116496;27;20049;-70
2023/09/28 07:05:16;;;;;;;34.83;8.00;;;;;;;;;;5135210;27;20038;-70
2023/09/28 07:07:42;;;;;;;40.97;8.55;;;;;;;;;;5116235;27;20481;-70
2023/09/28 07:10:10;;;;;;;48.38;8.85;;;;;;;;;;5134190;27;20039;-70
2023/09/28 07:12:36;;;;;;;51.42;8.10;;;;;;;;;;5134428;27;20090;-71
2023/09/28 07:15:03;;;;;;;42.17;8.18;;;;;;;;;;5116348;27;20050;-70
2023/09/28 07:17:30;;;;;;;42.10;8.70;;;;;;;;;;5099424;28;20104;-70
2023/09/28 07:19:56;;;;;;;51.87;8.93;;;;;;;;;;5134267;27;20054;-69
2023/09/28 07:22:23;;;;;;;40.17;8.57;;;;;;;;;;5082832;28;20372;-70
2023/09/28 07:24:49;;;;;;;43.55;9.75;;;;;;;;;;5134190;27;20497;-70
2023/09/28 07:27:16;;;;;;;54.67;9.70;;;;;;;;;;5134908;28;20085;-72
2023/09/28 07:29:42;;;;;;;44.75;9.35;;;;;;;;;;5134845;28;20130;-71
2023/09/28 07:32:08;;;;;;;35.90;9.63;;;;;;;;;;5134263;28;20139;-71
2023/09/28 07:34:35;;;;;;;37.07;10.03;;;;;;;;;;5134022;28;20467;-70
2023/09/28 07:37:01;;;;;;;40.70;9.70;;;;;;;;;;5134070;28;20281;-71
2023/09/28 07:39:27;;;;;;;44.10;10.63;;;;;;;;;;5133814;28;20470;-70
2023/09/28 07:41:53;;;;;;;61.30;10.33;;;;;;;;;;5134592;28;20325;-71
2023/09/28 07:44:19;;;;;;;49.93;10.70;;;;;;;;;;5116698;28;20043;-70
2023/09/28 07:46:47;;;;;;;52.00;10.43;;;;;;;;;;5116506;27;20058;-70
2023/09/28 07:49:14;;;;;;;52.65;9.27;;;;;;;;;;5139285;27;20046;-70
2023/09/28 07:51:41;;;;;;;54.95;9.48;;;;;;;;;;5138416;27;20047;-72
2023/09/28 07:54:07;;;;;;;48.53;9.23;;;;;;;;;;5138135;27;20050;-73
2023/09/28 07:56:34;;;;;;;50.60;10.15;;;;;;;;;;5120593;27;20366;-74
2023/09/28 07:59:00;;;;;;;43.78;8.95;;;;;;;;;;5137934;27;20130;-71
2023/09/28 08:01:26;;;;;;;49.17;9.00;;;;;;;;;;5137979;27;20129;-72
2023/09/28 08:03:53;;;;;;;49.25;9.35;;;;;;;;;;5138057;27;20047;-72
2023/09/28 08:06:20;;;;;;;52.08;9.45;;;;;;;;;;5137810;27;20079;-72
2023/09/28 08:08:46;;;;;;;53.10;8.90;;;;;;;;;;5137635;27;20108;-72
2023/09/28 08:11:12;;;;;;;55.50;9.48;;;;;;;;;;5137704;27;20455;-71
2023/09/28 08:13:39;;;;;;;59.00;9.40;;;;;;;;;;5138031;27;20062;-72
2023/09/28 08:16:05;;;;;;;52.95;8.73;;;;;;;;;;5119486;27;20075;-71
2023/09/28 08:18:31;;;;;;;52.38;8.75;;;;;;;;;;5137728;27;20047;-73
2023/09/28 08:20:57;;;;;;;56.07;8.53;;;;;;;;;;5138470;27;20473;-74
2023/09/28 08:23:23;;;;;;;55.90;8.10;;;;;;;;;;5119395;27;20043;-75
2023/09/28 08:25:49;;;;;;;50.17;8.23;;;;;;;;;;5137450;27;20087;-71
2023/09/28 08:28:15;;;;;;;55.60;8.60;;;;;;;;;;5137121;27;20366;-72
2023/09/28 08:30:42;;;;;;;48.17;7.47;;;;;;;;;;5119469;27;20636;-74
2023/09/28 08:33:09;;;;;;;57.88;8.65;;;;;;;;;;5137814;27;20124;-72
2023/09/28 08:35:36;;;;;;;65.95;7.97;;;;;;;;;;5103295;27;20074;-74
2023/09/28 08:38:03;;;;;;;49.63;8.02;;;;;;;;;;5102063;27;20081;-74
2023/09/28 08:40:30;;;;;;;60.15;7.72;;;;;;;;;;5137387;27;20552;-73
2023/09/28 08:42:56;;;;;;;;;;;;;;;;;;5137284;27;20047;-74
2023/09/28 08:45:23;;;;;;;58.55;7.88;;;;;;;;;;5118856;27;20021;-71
2023/09/28 08:47:49;;;;;;;;;;;;;;;;;;5119624;27;20390;-72
2023/09/28 08:50:20;;;;;;;57.72;6.70;;;;;;;;;;5118776;27;20279;-72
2023/09/28 08:52:47;;;;;;;55.90;7.47;;;;;;;;;;5118674;27;20061;-73
2023/09/28 08:55:13;;;;;;;58.22;7.40;;;;;;;;;;5102219;27;20039;-74
2023/09/28 08:57:42;;;;;;;58.38;6.95;;;;;;;;;;5137285;27;20051;-73
2023/09/28 09:00:13;;;;;;;49.05;6.90;;;;;;;;;;5117837;27;20047;-72
2023/09/28 09:02:41;;;;;;;64.38;7.15;;;;;;;;;;5136825;27;20066;-73
2023/09/28 09:05:08;;;;;;;76.55;7.05;;;;;;;;;;5118634;27;20497;-71
2023/09/28 09:07:36;;;;;;;55.90;5.80;;;;;;;;;;5118456;27;20157;-74
2023/09/28 09:10:02;;;;;;;59.00;5.85;;;;;;;;;;5137210;27;20048;-73
2023/09/28 09:12:32;;;;;;;69.60;6.40;;;;;;;;;;5101568;27;20104;-75
2023/09/28 09:14:58;;;;;;;55.38;6.30;;;;;;;;;;5119007;27;20115;-73
2023/09/28 09:17:34;;;;;;;66.43;6.30;;;;;;;;;;5118157;27;20062;-73
2023/09/28 09:20:00;;;;;;;70.50;7.00;;;;;;;;;;5136428;27;20046;-74
2023/09/28 09:22:28;;;;;;;68.30;6.65;;;;;;;;;;5136789;27;20579;-73
2023/09/28 09:25:00;;;;;;;77.93;6.55;;;;;;;;;;5118015;27;20047;-75
2023/09/28 09:27:27;;;;;;;68.70;7.18;;;;;;;;;;5118095;27;20043;-72
2023/09/28 09:29:57;;;;;;;65.07;6.57;;;;;;;;;;5118912;27;20055;-73
2023/09/28 09:32:23;;;;;;;58.45;5.90;;;;;;;;;;5137107;27;20047;-74
2023/09/28 09:34:51;;;;;;;68.03;5.68;;;;;;;;;;5136305;27;20091;-72
2023/09/28 09:37:19;;;;;;;56.58;4.85;;;;;;;;;;5136156;27;20428;-73
2023/09/28 09:39:45;;;;;;;57.63;6.57;;;;;;;;;;5136868;27;20135;-72
2023/09/28 09:42:11;;;;;;;56.47;5.55;;;;;;;;;;5136161;27;20093;-74
2023/09/28 09:44:38;;;;;;;67.93;6.28;;;;;;;;;;5135977;27;20043;-73
2023/09/28 09:47:04;;;;;;;57.33;5.43;;;;;;;;;;5136011;27;20053;-73
2023/09/28 09:49:30;;;;;;;70.60;5.32;;;;;;;;;;5117646;27;20100;-71
2023/09/28 09:51:59;;;;;;;63.10;6.43;;;;;;;;;;5135887;27;20043;-73
2023/09/28 09:54:26;;;;;;;62.08;5.72;;;;;;;;;;5117748;27;20403;-72
2023/09/28 09:56:53;;;;;;;61.03;6.15;;;;;;;;;;5135651;27;20099;-72
2023/09/28 09:59:21;;;;;;;57.17;5.03;;;;;;;;;;5100386;27;20043;-73
2023/09/28 10:01:48;;;;;;;57.58;4.90;;;;;;;;;;5135600;27;20547;-72
2023/09/28 10:04:16;;;;;;;70.72;6.53;;;;;;;;;;5136149;27;20383;-73
2023/09/28 10:06:47;;;;;;;66.57;5.63;;;;;;;;;;5135487;27;20402;-72
2023/09/28 10:09:15;;;;;;;51.05;5.10;;;;;;;;;;5100036;27;20061;-75
2023/09/28 10:11:41;;;;;;;60.03;5.40;;;;;;;;;;5098035;27;20063;-74
2023/09/28 10:14:08;;;;;;;54.75;5.28;;;;;;;;;;5099714;27;20094;-73
2023/09/28 10:16:36;;;;;;;39.47;4.55;;;;;;;;;;5135436;27;20063;-78
2023/09/28 10:19:08;;;;;;;61.63;5.57;;;;;;;;;;5135928;27;20043;-72
2023/09/28 10:21:38;;;;;;;43.65;5.82;;;;;;;;;;5134913;27;20510;-76
2023/09/28 10:24:14;;;;;;;48.97;5.75;;;;;;;;;;5117435;27;20043;-72
2023/09/28 10:26:50;;;;;;;49.15;4.70;;;;;;;;;;5116934;27;20050;-74
2023/09/28 10:29:20;;;;;;;50.00;5.35;;;;;;;;;;5116981;27;20467;-73
2023/09/28 10:31:46;;;;;;;53.20;4.88;;;;;;;;;;5134783;27;20051;-74
2023/09/28 10:34:22;;;;;;;50.85;4.82;;;;;;;;;;5116679;27;20047;-74
2023/09/28 10:37:18;;;;;;;58.50;4.95;;;;;;;;;;5116745;27;20070;-72
2023/09/28 10:39:48;;;;;;;54.55;4.75;;;;;;;;;;5135638;27;20051;-76
2023/09/28 10:42:17;;;;;;;53.63;4.50;;;;;;;;;;5135313;27;20082;-72
2023/09/28 10:44:47;;;;;;;50.60;5.30;;;;;;;;;;5116449;27;20130;-74
2023/09/28 10:47:13;;;;;;;56.53;5.00;;;;;;;;;;5135327;27;20433;-72
2023/09/28 10:49:40;;;;;;;52.33;4.53;;;;;;;;;;5134394;27;20122;-72
2023/09/28 10:52:08;;;;;;;54.17;4.50;;;;;;;;;;5135169;27;20043;-72
2023/09/28 10:54:34;;;;;;;52.25;4.25;;;;;;;;;;5116975;27;20134;-72
2023/09/28 10:57:03;;;;;;;37.92;3.42;;;;;;;;;;5134407;27;20054;-75
2023/09/28 10:59:29;;;;;;;38.90;4.13;;;;;;;;;;5134675;27;20043;-74
2023/09/28 11:01:56;;;;;;;45.85;4.70;;;;;;;;;;5134499;27;20424;-72
2023/09/28 11:04:22;;;;;;;59.25;5.25;;;;;;;;;;5135028;27;20143;-72
2023/09/28 11:06:49;;;;;;;62.33;6.50;;;;;;;;;;5116550;27;20055;-73
2023/09/28 11:09:18;;;;;;;53.40;4.85;;;;;;;;;;5135143;27;20047;-72
2023/09/28 11:11:45;;;;;;;36.13;4.55;;;;;;;;;;5134860;27;20050;-71
2023/09/28 11:14:11;;;;;;;46.78;5.60;;;;;;;;;;5116037;27;20047;-72
2023/09/28 11:16:49;;;;;;;54.22;6.05;;;;;;;;;;5116998;27;20061;-70
2023/09/28 11:19:15;;;;;;;50.38;5.15;;;;;;;;;;5134122;27;20126;-72
2023/09/28 11:21:44;;;;;;;57.67;6.50;;;;;;;;;;5099011;27;20138;-70
2023/09/28 11:24:11;;;;;;;54.20;5.63;;;;;;;;;;5134194;27;20076;-72
2023/09/28 11:26:38;;;;;;;58.22;5.95;;;;;;;;;;5115836;28;20047;-71
2023/09/28 11:29:04;;;;;;;49.58;6.57;;;;;;;;;;5115463;28;20051;-71
2023/09/28 11:31:35;;;;;;;36.63;4.85;;;;;;;;;;5099276;28;20110;-71
2023/09/28 11:34:02;;;;;;;51.88;6.13;;;;;;;;;;5116671;28;20193;-71
2023/09/28 11:36:28;;;;;;;52.70;5.78;;;;;;;;;;5134055;28;20122;-71
2023/09/28 11:38:55;;;;;;;47.40;6.38;;;;;;;;;;5134046;28;20050;-71
2023/09/28 11:41:23;;;;;;;44.13;4.55;;;;;;;;;;5134034;28;20099;-72
2023/09/28 11:43:51;;;;;;;62.45;5.75;;;;;;;;;;5134294;28;20058;-71
2023/09/28 11:46:25;;;;;;;44.08;5.30;;;;;;;;;;5115372;28;20047;-71
2023/09/28 11:49:03;;;;;;;45.03;5.53;;;;;;;;;;5134823;28;20132;-72
2023/09/28 11:51:30;;;;;;;42.17;5.35;;;;;;;;;;5115723;28;20051;-71
2023/09/28 11:53:57;;;;;;;46.22;5.78;;;;;;;;;;5133931;28;20083;-70
2023/09/28 11:56:23;;;;;;;46.88;5.90;;;;;;;;;;5133905;28;20047;-72
2023/09/28 11:58:49;;;;;;;49.30;5.63;;;;;;;;;;5133847;28;20134;-72
2023/09/28 12:01:15;;;;;;;45.13;5.47;;;;;;;;;;5099297;28;20371;-72
2023/09/28 12:03:41;;;;;;;49.45;5.63;;;;;;;;;;5133811;28;20050;-72
2023/09/28 12:06:07;;;;;;;50.05;5.28;;;;;;;;;;5133833;28;20045;-73
2023/09/28 12:08:36;;;;;;;49.85;5.35;;;;;;;;;;5133769;28;20047;-71
2023/09/28 12:11:02;;;;;;;61.10;6.43;;;;;;;;;;5115840;28;20063;-72
2023/09/28 12:13:28;;;;;;;57.00;5.72;;;;;;;;;;5134524;28;20181;-71
2023/09/28 12:15:55;;;;;;;47.03;5.65;;;;;;;;;;5115467;28;20054;-71
2023/09/28 12:18:21;;;;;;;46.67;5.80;;;;;;;;;;5134002;28;20051;-71
2023/09/28 12:20:48;;;;;;;44.72;5.88;;;;;;;;;;5115475;28;20451;-71
2023/09/28 12:23:14;;;;;;;51.55;5.60;;;;;;;;;;5134424;28;20374;-71
2023/09/28 12:25:40;;;;;;;48.53;6.82;;;;;;;;;;5115513;28;20053;-72
2023/09/28 12:28:07;;;;;;;44.78;5.88;;;;;;;;;;5115173;28;20345;-72
2023/09/28 12:30:33;;;;;;;47.65;5.63;;;;;;;;;;5115633;28;20064;-71
2023/09/28 12:33:02;;;;;;;65.95;6.00;;;;;;;;;;5133858;27;20368;-72
2023/09/28 12:35:29;;;;;;;49.88;6.65;;;;;;;;;;5102159;27;20486;-71
2023/09/28 12:37:55;;;;;;;63.45;5.68;;;;;;;;;;5137216;27;20047;-72
2023/09/28 12:40:21;;;;;;;50.70;5.40;;;;;;;;;;5119481;27;20047;-71
2023/09/28 12:42:47;;;;;;;49.55;5.60;;;;;;;;;;5118999;27;20100;-71
2023/09/28 12:45:13;;;;;;;50.10;5.57;;;;;;;;;;5137070;27;20039;-71
2023/09/28 12:47:39;;;;;;;56.92;6.40;;;;;;;;;;5119675;27;20389;-70
2023/09/28 12:50:05;;;;;;;51.00;5.70;;;;;;;;;;5118878;27;20039;-71
2023/09/28 12:52:32;;;;;;;46.20;5.93;;;;;;;;;;5137082;27;20079;-71
2023/09/28 12:54:58;;;;;;;39.97;5.80;;;;;;;;;;5137319;27;20062;-71
2023/09/28 12:57:24;;;;;;;48.90;6.10;;;;;;;;;;5118724;27;20517;-71
2023/09/28 12:59:53;;;;;;;51.97;5.32;;;;;;;;;;5136819;27;20449;-72
2023/09/28 13:02:23;;;;;;;53.45;6.40;;;;;;;;;;5136725;27;20059;-71
2023/09/28 13:04:49;;;;;;;61.90;7.18;;;;;;;;;;5136821;27;20047;-71
2023/09/28 13:07:15;;;;;;;53.22;6.75;;;;;;;;;;5118657;27;20072;-72
2023/09/28 13:09:42;;;;;;;63.78;7.97;;;;;;;;;;5136635;27;20051;-71
2023/09/28 13:12:08;;;;;;;59.40;7.63;;;;;;;;;;5118586;27;20510;-70
2023/09/28 13:14:34;;;;;;;51.05;6.22;;;;;;;;;;5119277;27;20054;-70
2023/09/28 13:17:00;;;;;;;53.13;7.10;;;;;;;;;;5136609;27;20054;-71
2023/09/28 13:19:26;;;;;;;53.10;7.30;;;;;;;;;;5119041;27;20196;-71
2023/09/28 13:21:59;;;;;;;42.95;6.72;;;;;;;;;;5136315;27;20078;-71
2023/09/28 13:24:26;;;;;;;45.88;6.40;;;;;;;;;;5117591;27;20658;-71
2023/09/28 13:27:00;;;;;;;47.45;6.75;;;;;;;;;;5136362;27;20047;-71
2023/09/28 13:29:26;;;;;;;49.03;6.53;;;;;;;;;;5136448;27;20062;-70
2023/09/28 13:31:52;;;;;;;48.28;6.43;;;;;;;;;;5118245;27;20428;-74
2023/09/28 13:34:18;;;;;;;51.55;6.78;;;;;;;;;;5136292;27;20086;-71
2023/09/28 13:36:45;;;;;;;44.47;6.85;;;;;;;;;;5101185;27;20049;-69
2023/09/28 13:39:27;;;;;;;45.17;6.15;;;;;;;;;;5101715;27;20510;-72
2023/09/28 13:42:00;;;;;;;43.53;5.72;;;;;;;;;;5135935;27;20048;-71
2023/09/28 13:44:27;;;;;;;46.03;7.43;;;;;;;;;;5118684;27;20079;-70
2023/09/28 13:46:53;;;;;;;46.70;6.18;;;;;;;;;;5084317;27;20047;-70
2023/09/28 13:49:19;;;;;;;;;;;;;;;;;;5136656;27;20383;-70
2023/09/28 13:51:47;;;;;;;44.30;6.28;;;;;;;;;;5117731;27;19926;-70
2023/09/28 13:54:14;;;;;;;47.83;6.32;;;;;;;;;;5117595;27;20479;-71
2023/09/28 13:56:41;;;;;;;51.88;6.32;;;;;;;;;;5135863;27;20058;-70
2023/09/28 13:59:10;;;;;;;49.55;6.28;;;;;;;;;;5117869;27;20089;-71
2023/09/28 14:01:43;;;;;;;53.25;5.55;;;;;;;;;;5118323;27;20054;-71
2023/09/28 14:04:12;;;;;;;43.20;6.60;;;;;;;;;;5117184;27;20046;-70
2023/09/28 14:06:40;;;;;;;46.63;5.63;;;;;;;;;;5117213;27;20039;-72
2023/09/28 14:09:10;;;;;;;49.83;6.43;;;;;;;;;;5117211;27;20051;-71
2023/09/28 14:11:38;;;;;;;49.00;7.15;;;;;;;;;;5117937;27;20054;-71
2023/09/28 14:14:04;;;;;;;41.85;6.13;;;;;;;;;;5117872;27;20046;-71
2023/09/28 14:16:34;;;;;;;58.08;6.90;;;;;;;;;;5135174;27;20043;-71
2023/09/28 14:19:01;;;;;;;38.13;6.00;;;;;;;;;;5135288;27;20039;-69
2023/09/28 14:21:27;;;;;;;53.58;6.72;;;;;;;;;;5117214;27;20040;-71
2023/09/28 14:23:53;;;;;;;52.00;6.40;;;;;;;;;;5135185;27;20100;-70
2023/09/28 14:26:19;;;;;;;43.60;6.00;;;;;;;;;;5117035;27;20039;-73